Terminal Aerodrome Forecast
Issued by NWS

Home | Current Version | Previous Version | Text Only | Print | Product List | Glossary On
Versions: 1 2 3 4 5 6 7 8 9 10 11 12 13 14 15 16 17 18 19 20 21 22 23 24 25 26 27 28
000
FTUS43 KGRB 281731
TAFRHI
TAF
KRHI 281731Z 2818/2918 19015G28KT P6SM VCSH SCT013 BKN040
      TEMPO 2818/2822 2SM -SHRA OVC013
     FM290400 20003KT 4SM -SHRA BR BKN009 BKN040
     FM290600 20007KT 3SM BR SCT004 OVC009 PROB30 2908/2912 1 1/2SM
      -SHRA BR OVC004
     FM291200 23008KT 5SM BR OVC012 PROB30 2912/2918 2SM -SHRA BR
      OVC007=

USA.gov is the U.S. government's official web portal to all federal, state and local government web resources and services.